Time;durP1;ratioP1;P1;durP2;ratioP2;P2;SDS_P1;SDS_P2;PMS_P1;PMS_P2;Temp;Humidity;BMP_temperature;BMP_pressure;BME280_temperature;BME280_humidity;BME280_pressure;Samples;Min_cycle;Max_cycle;Signal;HPM_P1;HPM_P2
2022/04/28 00:01:14;;;;;;;7.13;5.85;;;20.10;99.90;;;;;;5033500;28;20100;-64
2022/04/28 00:03:41;;;;;;;6.78;6.07;;;20.00;99.90;;;;;;5032290;28;20017;-70
2022/04/28 00:06:08;;;;;;;7.00;6.30;;;20.00;99.90;;;;;;5033639;28;20033;-69
2022/04/28 00:08:35;;;;;;;7.47;6.78;;;20.00;99.90;;;;;;5032962;28;20392;-70
2022/04/28 00:11:02;;;;;;;8.63;6.18;;;20.10;99.90;;;;;;5033038;28;20053;-66
2022/04/28 00:13:29;;;;;;;5.53;4.13;;;20.20;99.90;;;;;;5032102;28;20030;-70
2022/04/28 00:15:56;;;;;;;6.07;4.93;;;20.20;99.90;;;;;;5032694;28;20033;-69
2022/04/28 00:18:23;;;;;;;11.32;9.93;;;20.30;99.90;;;;;;5034058;28;20639;-68
2022/04/28 00:20:50;;;;;;;5.72;5.22;;;20.30;99.90;;;;;;5032675;28;20022;-66
2022/04/28 00:23:17;;;;;;;5.38;4.90;;;20.30;99.90;;;;;;5032919;28;20026;-66
2022/04/28 00:25:44;;;;;;;8.88;7.32;;;20.40;99.90;;;;;;5033931;28;20124;-66
2022/04/28 00:28:11;;;;;;;12.40;11.20;;;20.40;99.90;;;;;;5034017;28;20140;-66
2022/04/28 00:30:38;;;;;;;14.65;13.25;;;20.50;99.90;;;;;;5033441;28;20025;-64
2022/04/28 00:33:05;;;;;;;14.18;12.70;;;20.30;99.90;;;;;;5033425;28;20017;-67
2022/04/28 00:35:32;;;;;;;15.63;13.20;;;20.30;99.90;;;;;;5032885;28;20021;-65
2022/04/28 00:37:59;;;;;;;15.43;13.75;;;20.30;99.90;;;;;;5033825;28;20045;-70
2022/04/28 00:40:26;;;;;;;9.38;8.45;;;20.30;99.90;;;;;;5032142;28;20065;-65
2022/04/28 00:43:18;;;;;;;10.70;7.55;;;20.50;99.90;;;;;;5030612;28;20107;-69
2022/04/28 00:45:39;;;;;;;7.00;6.30;;;20.70;99.90;;;;;;5032028;28;20091;-66
2022/04/28 00:50:53;;;;;;;5.45;4.63;;;20.80;99.90;;;;;;5032993;28;20078;-70
2022/04/28 00:53:21;;;;;;;5.68;4.85;;;20.90;99.90;;;;;;5035378;28;20042;-69
2022/04/28 00:55:48;;;;;;;4.63;4.22;;;20.90;99.90;;;;;;5032295;28;20025;-65
2022/04/28 00:58:15;;;;;;;5.90;5.20;;;20.90;99.90;;;;;;5033459;28;20051;-70
2022/04/28 01:00:43;;;;;;;7.10;6.40;;;20.90;99.90;;;;;;5032411;28;20029;-66
2022/04/28 01:03:11;;;;;;;7.57;6.72;;;20.90;99.90;;;;;;5033207;28;20068;-65
2022/04/28 01:05:39;;;;;;;13.25;12.05;;;21.00;99.90;;;;;;5033520;28;20033;-68
2022/04/28 01:08:09;;;;;;;7.28;6.63;;;21.30;99.90;;;;;;5033904;28;20021;-66
2022/04/28 01:10:36;;;;;;;6.35;5.75;;;21.50;99.90;;;;;;5037171;28;20368;-70
2022/04/28 01:13:04;;;;;;;11.85;10.63;;;21.70;99.90;;;;;;5036525;28;20041;-67
2022/04/28 01:15:42;;;;;;;4.25;3.85;;;21.90;99.90;;;;;;5037484;28;20060;-65
2022/04/28 01:18:09;;;;;;;3.58;3.28;;;22.00;99.90;;;;;;5036999;28;20060;-67
2022/04/28 01:20:36;;;;;;;4.50;3.53;;;22.00;99.90;;;;;;5034602;28;20040;-67
2022/04/28 01:23:05;;;;;;;5.82;4.28;;;21.90;99.90;;;;;;5037082;28;20028;-70
2022/04/28 01:25:32;;;;;;;5.38;4.68;;;21.90;99.90;;;;;;5036830;28;20406;-64
2022/04/28 01:28:02;;;;;;;5.07;4.57;;;21.90;99.90;;;;;;5018901;28;20032;-66
2022/04/28 01:30:33;;;;;;;5.22;3.97;;;21.70;99.90;;;;;;5036949;28;20064;-65
2022/04/28 01:33:05;;;;;;;4.18;2.65;;;21.70;99.90;;;;;;5036846;28;20087;-67
2022/04/28 01:35:32;;;;;;;3.42;2.33;;;21.60;99.90;;;;;;5036145;28;20041;-67
2022/04/28 01:37:59;;;;;;;2.22;2.03;;;21.60;99.90;;;;;;5035451;28;20045;-68
2022/04/28 01:40:26;;;;;;;4.32;3.83;;;21.60;99.90;;;;;;5035217;28;20060;-68
2022/04/28 01:42:53;;;;;;;5.32;3.40;;;21.60;99.90;;;;;;5033103;28;20021;-70
2022/04/28 01:45:20;;;;;;;5.00;4.55;;;21.60;99.90;;;;;;5036530;28;20032;-63
2022/04/28 01:47:47;;;;;;;3.03;2.72;;;21.70;99.90;;;;;;5035234;28;20025;-68
2022/04/28 01:50:14;;;;;;;4.43;3.17;;;21.70;99.90;;;;;;5036325;28;20499;-63
2022/04/28 01:55:26;;;;;;;4.80;4.40;;;21.60;99.90;;;;;;5036000;28;20044;-68
2022/04/28 01:57:53;;;;;;;5.35;4.20;;;21.50;99.90;;;;;;5036305;28;20108;-69
2022/04/28 02:00:20;;;;;;;2.83;2.53;;;21.40;99.90;;;;;;5035465;28;20035;-63
2022/04/28 02:02:47;;;;;;;3.05;2.38;;;21.40;99.90;;;;;;5036261;28;20033;-65
2022/04/28 02:05:17;;;;;;;4.05;2.67;;;21.30;99.90;;;;;;5035154;28;20434;-67
2022/04/28 02:07:44;;;;;;;3.50;2.40;;;21.20;99.90;;;;;;5035689;28;20464;-67
2022/04/28 02:10:12;;;;;;;4.50;3.05;;;21.10;99.90;;;;;;5036476;28;20021;-63
2022/04/28 02:12:39;;;;;;;7.18;6.47;;;20.90;99.90;;;;;;5035586;28;20778;-64
2022/04/28 02:15:07;;;;;;;8.90;8.07;;;20.90;99.90;;;;;;5036199;28;20040;-68
2022/04/28 02:17:39;;;;;;;7.03;6.30;;;20.80;99.90;;;;;;5036334;28;20037;-64
2022/04/28 02:20:11;;;;;;;4.47;4.00;;;20.80;99.90;;;;;;5035591;28;20030;-63
2022/04/28 02:22:38;;;;;;;5.38;4.75;;;20.80;99.90;;;;;;5035643;28;20036;-63
2022/04/28 02:25:06;;;;;;;4.60;4.20;;;20.70;99.90;;;;;;5033559;28;20652;-64
2022/04/28 02:27:33;;;;;;;8.73;7.93;;;20.60;99.90;;;;;;5035834;28;20022;-63
2022/04/28 02:30:00;;;;;;;7.28;6.55;;;20.50;99.90;;;;;;5035658;28;20036;-69
2022/04/28 02:33:08;;;;;;;5.70;5.20;;;20.50;99.90;;;;;;5034687;28;20124;-64
2022/04/28 02:35:14;;;;;;;4.88;4.47;;;20.50;99.90;;;;;;5035315;28;20493;-69
2022/04/28 02:37:43;;;;;;;4.35;3.95;;;20.50;99.90;;;;;;5034519;28;20115;-66
2022/04/28 02:40:11;;;;;;;3.30;3.00;;;20.50;99.90;;;;;;5032104;28;20083;-63
2022/04/28 02:42:38;;;;;;;5.38;3.08;;;20.60;99.90;;;;;;5033023;28;20032;-71
2022/04/28 02:45:05;;;;;;;3.15;2.85;;;20.80;99.90;;;;;;5034879;28;20646;-71
2022/04/28 02:47:32;;;;;;;4.30;3.10;;;20.90;99.90;;;;;;5035131;28;20064;-63
2022/04/28 02:49:59;;;;;;;6.72;4.35;;;20.90;99.90;;;;;;5032627;28;20640;-64
2022/04/28 02:52:26;;;;;;;6.22;5.03;;;20.80;99.90;;;;;;5034574;28;20021;-64
2022/04/28 02:54:53;;;;;;;8.05;5.60;;;20.80;99.90;;;;;;5035196;28;20076;-65
2022/04/28 02:57:20;;;;;;;4.88;3.53;;;20.90;99.90;;;;;;5035555;28;20111;-68
2022/04/28 02:59:46;;;;;;;4.82;4.10;;;20.80;99.90;;;;;;5036126;28;20041;-69
2022/04/28 03:02:16;;;;;;;5.72;4.07;;;20.70;99.90;;;;;;5035025;28;20494;-74
2022/04/28 03:04:43;;;;;;;4.80;4.40;;;20.70;99.90;;;;;;5033862;28;20025;-66
2022/04/28 03:12:40;;;;;;;7.22;6.15;;;20.70;99.90;;;;;;5033115;28;20060;-65
2022/04/28 03:15:08;;;;;;;9.32;5.90;;;20.60;99.90;;;;;;5034489;28;20126;-66
2022/04/28 03:17:36;;;;;;;6.40;4.97;;;20.60;99.90;;;;;;5034538;28;20025;-73
2022/04/28 03:20:04;;;;;;;6.00;5.00;;;20.50;99.90;;;;;;5034812;28;20027;-73
2022/04/28 03:22:32;;;;;;;5.93;4.00;;;20.50;99.90;;;;;;5034187;28;20030;-65
2022/04/28 03:24:59;;;;;;;3.55;2.90;;;20.50;99.90;;;;;;5033693;28;20037;-69
2022/04/28 03:27:27;;;;;;;7.13;3.55;;;20.50;99.90;;;;;;4685909;28;10000343;-74
2022/04/28 03:29:54;;;;;;;6.43;3.75;;;20.50;99.90;;;;;;5030883;28;20069;-64
2022/04/28 03:32:21;;;;;;;4.13;2.95;;;20.60;99.90;;;;;;5029054;28;20024;-65
2022/04/28 03:34:52;;;;;;;4.18;2.72;;;20.70;99.90;;;;;;5031103;28;20061;-64
2022/04/28 03:37:21;;;;;;;4.80;1.98;;;20.70;99.90;;;;;;5031710;28;20043;-69
2022/04/28 03:39:48;;;;;;;3.30;2.20;;;20.70;99.90;;;;;;5029973;28;20067;-65
2022/04/28 03:42:17;;;;;;;3.72;2.30;;;20.60;99.90;;;;;;5030744;28;20017;-75
2022/04/28 03:44:44;;;;;;;3.55;1.80;;;20.50;99.90;;;;;;5028731;28;20029;-74
2022/04/28 03:47:11;;;;;;;2.05;1.85;;;20.50;99.90;;;;;;5031314;28;20032;-69
2022/04/28 03:49:38;;;;;;;4.28;1.95;;;20.60;99.90;;;;;;5030593;28;20635;-69
2022/04/28 03:52:05;;;;;;;3.50;1.88;;;20.50;99.90;;;;;;5031348;28;20056;-74
2022/04/28 03:54:32;;;;;;;2.65;1.80;;;20.50;99.90;;;;;;5031322;28;20020;-74
2022/04/28 03:56:59;;;;;;;3.22;1.83;;;20.40;99.90;;;;;;5031927;28;20492;-64
2022/04/28 03:59:26;;;;;;;5.95;2.78;;;20.40;99.90;;;;;;5031358;28;20120;-74
2022/04/28 04:01:56;;;;;;;4.95;2.97;;;20.40;99.90;;;;;;5030839;28;20035;-73
2022/04/28 04:04:23;;;;;;;5.88;2.90;;;20.30;99.90;;;;;;5030983;28;20022;-69
2022/04/28 04:06:50;;;;;;;3.22;2.78;;;20.30;99.90;;;;;;5032228;28;20395;-73
2022/04/28 04:09:16;;;;;;;2.30;1.88;;;20.40;99.90;;;;;;5034492;28;20013;-63
2022/04/28 04:11:43;;;;;;;2.10;1.83;;;20.40;99.90;;;;;;5030290;28;20014;-72
2022/04/28 04:14:11;;;;;;;2.33;1.83;;;20.30;99.90;;;;;;5035513;28;20495;-69
2022/04/28 04:16:38;;;;;;;2.00;1.80;;;20.40;99.90;;;;;;5033772;28;20401;-64
2022/04/28 04:19:05;;;;;;;2.70;1.80;;;20.50;99.90;;;;;;5033761;28;20025;-66
2022/04/28 04:21:32;;;;;;;2.22;2.00;;;20.50;99.90;;;;;;5033678;28;20048;-66
2022/04/28 04:23:59;;;;;;;2.60;1.77;;;20.50;99.90;;;;;;5030091;28;20034;-68
2022/04/28 04:26:26;;;;;;;3.67;1.70;;;20.50;99.90;;;;;;5035724;28;20026;-67
2022/04/28 04:28:53;;;;;;;2.28;1.63;;;20.50;99.90;;;;;;5035048;28;20030;-63
2022/04/28 04:34:05;;;;;;;1.73;1.58;;;20.60;99.90;;;;;;5035556;28;20068;-64
2022/04/28 04:36:32;;;;;;;4.30;1.80;;;20.60;99.90;;;;;;5031025;28;20493;-65
2022/04/28 04:39:02;;;;;;;2.75;1.63;;;20.60;99.90;;;;;;5033967;28;20096;-67
2022/04/28 04:41:32;;;;;;;2.30;1.63;;;20.60;99.90;;;;;;5030631;28;20111;-63
2022/04/28 04:43:59;;;;;;;4.10;2.47;;;20.60;99.90;;;;;;5026738;28;20028;-63
2022/04/28 04:46:26;;;;;;;5.00;3.00;;;20.70;99.90;;;;;;5015776;28;20039;-62
2022/04/28 04:48:52;;;;;;;5.55;3.35;;;20.70;99.90;;;;;;5034259;28;20041;-67
2022/04/28 04:51:19;;;;;;;4.80;3.20;;;20.70;99.90;;;;;;5030861;28;20033;-64
2022/04/28 04:53:46;;;;;;;4.95;3.67;;;20.80;99.90;;;;;;5030404;28;20032;-62
2022/04/28 04:56:13;;;;;;;5.05;3.70;;;20.80;99.90;;;;;;5029269;28;20486;-71
2022/04/28 04:58:40;;;;;;;5.57;3.40;;;20.80;99.90;;;;;;5031912;28;20116;-64
2022/04/28 05:01:07;;;;;;;6.22;3.67;;;20.70;99.90;;;;;;5032719;28;20037;-68
2022/04/28 05:03:37;;;;;;;8.27;4.25;;;20.80;99.90;;;;;;5031778;28;20017;-69
2022/04/28 05:06:07;;;;;;;4.15;2.83;;;20.80;99.90;;;;;;5030123;28;20033;-65
2022/04/28 05:08:36;;;;;;;4.38;2.15;;;20.80;99.90;;;;;;5030545;28;20068;-63
2022/04/28 05:11:03;;;;;;;3.88;1.85;;;20.80;99.90;;;;;;5030842;28;20025;-63
2022/04/28 05:13:30;;;;;;;2.05;1.50;;;20.80;99.90;;;;;;5029761;28;20452;-68
2022/04/28 05:15:57;;;;;;;3.55;1.52;;;20.90;99.90;;;;;;5029919;28;20033;-68
2022/04/28 05:18:27;;;;;;;1.98;1.80;;;20.90;99.90;;;;;;5031897;28;20490;-71
2022/04/28 05:20:54;;;;;;;4.90;2.03;;;20.90;99.90;;;;;;5030327;28;20570;-71
2022/04/28 05:23:21;;;;;;;2.50;1.98;;;20.90;99.90;;;;;;5028295;28;20025;-69
2022/04/28 05:25:48;;;;;;;2.22;1.70;;;20.90;99.90;;;;;;5031880;28;20021;-66
2022/04/28 05:28:15;;;;;;;3.20;2.50;;;20.90;99.90;;;;;;5032364;28;20502;-70
2022/04/28 05:30:42;;;;;;;3.08;2.13;;;20.90;99.90;;;;;;5030335;28;20053;-65
2022/04/28 05:33:09;;;;;;;9.23;7.68;;;20.90;99.90;;;;;;5030063;28;20060;-67
2022/04/28 05:35:41;;;;;;;2.20;1.92;;;20.90;99.90;;;;;;5031187;28;20056;-69
2022/04/28 05:38:09;;;;;;;3.72;2.60;;;20.90;99.90;;;;;;5032085;28;20060;-68
2022/04/28 05:40:39;;;;;;;2.80;2.20;;;20.80;99.90;;;;;;5029762;28;20029;-64
2022/04/28 05:45:52;;;;;;;3.05;2.17;;;20.90;99.90;;;;;;5031823;28;20035;-63
2022/04/28 05:48:20;;;;;;;3.13;2.22;;;20.90;99.90;;;;;;5029212;28;20029;-64
2022/04/28 05:50:47;;;;;;;3.38;1.67;;;20.90;99.90;;;;;;5031758;28;20627;-63
2022/04/28 05:53:15;;;;;;;2.58;1.90;;;20.70;99.90;;;;;;5030631;28;20033;-63
2022/04/28 05:55:42;;;;;;;2.47;2.03;;;20.70;99.90;;;;;;5029949;28;20440;-72
2022/04/28 05:58:09;;;;;;;3.58;2.47;;;20.70;99.90;;;;;;5035715;28;20383;-68
2022/04/28 06:00:36;;;;;;;2.85;1.92;;;20.60;99.90;;;;;;5034842;28;20429;-69
2022/04/28 06:03:03;;;;;;;3.45;2.25;;;20.60;99.90;;;;;;5031874;28;20033;-63
2022/04/28 06:05:30;;;;;;;4.40;2.30;;;20.70;99.90;;;;;;5034356;28;20041;-71
2022/04/28 06:07:57;;;;;;;7.88;2.00;;;20.70;99.90;;;;;;5035478;28;20052;-65
2022/04/28 06:10:24;;;;;;;2.88;2.20;;;20.70;99.90;;;;;;5035196;28;20061;-65
2022/04/28 06:12:51;;;;;;;5.97;3.83;;;20.70;99.90;;;;;;5033369;28;20035;-65
2022/04/28 06:15:18;;;;;;;3.63;2.13;;;20.70;99.90;;;;;;5033609;28;20555;-73
2022/04/28 06:17:48;;;;;;;2.45;2.05;;;20.70;99.90;;;;;;5034547;28;20436;-63
2022/04/28 06:20:18;;;;;;;4.07;2.10;;;20.70;99.90;;;;;;5032092;28;20037;-72
2022/04/28 06:22:48;;;;;;;5.72;3.60;;;20.70;99.90;;;;;;5034525;28;20025;-65
2022/04/28 06:25:15;;;;;;;3.67;2.28;;;20.60;99.90;;;;;;5035088;28;20071;-63
2022/04/28 06:27:42;;;;;;;3.78;2.40;;;20.60;99.90;;;;;;5033131;28;20082;-71
2022/04/28 06:30:09;;;;;;;4.82;2.90;;;20.60;99.90;;;;;;5034205;28;20036;-63
2022/04/28 06:32:37;;;;;;;7.35;3.75;;;20.50;99.90;;;;;;5033748;28;20110;-71
2022/04/28 06:35:05;;;;;;;7.50;3.85;;;20.50;99.90;;;;;;5033930;28;20033;-65
2022/04/28 06:37:32;;;;;;;6.15;3.55;;;20.50;99.90;;;;;;5035397;28;20045;-63
2022/04/28 06:39:59;;;;;;;4.03;2.78;;;20.50;99.90;;;;;;5031064;28;20035;-72
2022/04/28 06:42:26;;;;;;;4.53;2.88;;;20.40;99.90;;;;;;5033768;28;20075;-74
2022/04/28 06:44:53;;;;;;;4.82;2.35;;;20.40;99.90;;;;;;5032802;28;20033;-71
2022/04/28 06:47:22;;;;;;;2.75;2.13;;;20.40;99.90;;;;;;5031633;28;20036;-72
2022/04/28 06:49:49;;;;;;;3.95;1.65;;;20.40;99.90;;;;;;5034761;28;20030;-67
2022/04/28 06:52:16;;;;;;;3.15;1.73;;;20.30;99.90;;;;;;5032419;28;20036;-70
2022/04/28 06:54:43;;;;;;;2.17;1.50;;;20.30;99.90;;;;;;5032013;28;20044;-70
2022/04/28 06:57:10;;;;;;;1.88;1.10;;;20.20;99.90;;;;;;5034253;28;20108;-62
2022/04/28 06:59:37;;;;;;;3.15;1.50;;;20.10;99.90;;;;;;5035270;28;20032;-64
2022/04/28 07:02:05;;;;;;;2.70;1.50;;;20.10;99.90;;;;;;5032101;28;20057;-68
2022/04/28 07:04:32;;;;;;;3.60;2.00;;;20.10;99.90;;;;;;5031924;28;20143;-67
2022/04/28 07:06:59;;;;;;;1.83;1.60;;;20.00;99.90;;;;;;5033492;28;20025;-64
2022/04/28 07:09:26;;;;;;;2.47;1.80;;;19.90;99.90;;;;;;5029932;28;20487;-69
2022/04/28 07:11:53;;;;;;;5.88;1.60;;;19.90;99.90;;;;;;5029434;28;20021;-69
2022/04/28 07:14:19;;;;;;;3.63;1.65;;;19.80;99.90;;;;;;5030109;28;20085;-70
2022/04/28 07:16:46;;;;;;;3.45;1.75;;;19.80;99.90;;;;;;5033817;28;20100;-68
2022/04/28 07:19:13;;;;;;;3.40;1.75;;;19.70;99.90;;;;;;5030707;28;20017;-64
2022/04/28 07:21:40;;;;;;;3.40;1.65;;;19.70;99.90;;;;;;5032395;28;20025;-63
2022/04/28 07:24:07;;;;;;;3.85;1.65;;;19.60;99.90;;;;;;5026752;28;20033;-63
2022/04/28 07:26:34;;;;;;;3.65;1.52;;;19.60;99.90;;;;;;5026056;28;20585;-66
2022/04/28 07:29:01;;;;;;;5.18;2.83;;;19.50;99.90;;;;;;5029614;28;20039;-63
2022/04/28 07:31:28;;;;;;;6.78;5.07;;;19.50;99.90;;;;;;5028206;28;20065;-69
2022/04/28 07:33:55;;;;;;;8.55;5.72;;;19.50;99.90;;;;;;5029573;28;20043;-62
2022/04/28 07:36:22;;;;;;;6.20;3.15;;;19.50;99.90;;;;;;5026963;28;20029;-70
2022/04/28 07:38:49;;;;;;;9.32;3.42;;;19.50;99.90;;;;;;5024097;28;20760;-72
2022/04/28 07:41:16;;;;;;;8.70;4.20;;;19.50;99.90;;;;;;5028239;28;20044;-71
2022/04/28 07:43:43;;;;;;;4.97;3.08;;;19.50;99.90;;;;;;5027612;28;20017;-66
2022/04/28 07:46:10;;;;;;;7.78;4.55;;;19.50;99.90;;;;;;5029476;28;20036;-69
2022/04/28 07:48:37;;;;;;;8.35;5.20;;;19.50;99.90;;;;;;5031340;28;20510;-69
2022/04/28 07:51:04;;;;;;;5.82;4.72;;;19.40;99.90;;;;;;5030979;28;20036;-64
2022/04/28 07:53:32;;;;;;;5.78;3.97;;;19.40;99.90;;;;;;5032683;28;20039;-63
2022/04/28 07:56:15;;;;;;;3.55;2.30;;;19.40;99.90;;;;;;5030228;28;20107;-68
2022/04/28 07:58:43;;;;;;;3.78;2.40;;;19.40;99.90;;;;;;5035115;28;20116;-62
2022/04/28 08:01:12;;;;;;;4.40;3.22;;;19.40;99.90;;;;;;5030765;28;20521;-69
2022/04/28 08:03:39;;;;;;;6.18;2.70;;;19.30;99.90;;;;;;5014873;28;20021;-64
2022/04/28 08:06:07;;;;;;;2.63;2.00;;;19.30;99.90;;;;;;5032624;28;20475;-71
2022/04/28 08:08:36;;;;;;;5.15;3.78;;;19.30;99.90;;;;;;5031722;28;20022;-66
2022/04/28 08:11:06;;;;;;;3.35;2.70;;;19.30;99.90;;;;;;5032920;28;20112;-66
2022/04/28 08:13:36;;;;;;;2.95;1.67;;;19.30;99.90;;;;;;5027484;28;20037;-63
2022/04/28 08:16:06;;;;;;;6.53;2.08;;;19.20;99.90;;;;;;5029216;28;20128;-64
2022/04/28 08:18:35;;;;;;;4.88;2.13;;;19.20;99.90;;;;;;5028719;28;20039;-63
2022/04/28 08:21:02;;;;;;;3.22;2.15;;;19.10;99.90;;;;;;5030409;28;20034;-64
2022/04/28 08:23:29;;;;;;;5.57;4.47;;;19.20;99.90;;;;;;5029926;28;20502;-64
2022/04/28 08:25:59;;;;;;;6.13;4.05;;;19.10;99.90;;;;;;5030627;28;20392;-64
2022/04/28 08:28:26;;;;;;;6.65;5.28;;;19.10;99.90;;;;;;5028547;28;20021;-71
2022/04/28 08:30:53;;;;;;;7.55;5.53;;;19.10;99.90;;;;;;5028945;28;20337;-71
2022/04/28 08:33:20;;;;;;;5.20;3.80;;;19.20;99.90;;;;;;5031323;28;20037;-70
2022/04/28 08:35:47;;;;;;;7.13;5.05;;;19.20;99.90;;;;;;5025306;28;20056;-64
2022/04/28 08:38:14;;;;;;;9.60;4.35;;;19.10;99.90;;;;;;5028967;28;20050;-71
2022/04/28 08:40:45;;;;;;;4.95;3.88;;;19.10;99.90;;;;;;5025061;28;20482;-70
2022/04/28 08:43:15;;;;;;;6.20;3.63;;;19.20;99.90;;;;;;5023850;28;20455;-64
2022/04/28 08:48:41;;;;;;;6.90;4.00;;;19.10;99.90;;;;;;4983785;28;20413;-66
2022/04/28 08:51:13;;;;;;;5.60;2.83;;;19.10;99.90;;;;;;4985256;28;20165;-65
2022/04/28 08:53:45;;;;;;;7.97;3.95;;;19.10;99.90;;;;;;4984151;28;20553;-64
2022/04/28 08:56:12;;;;;;;3.97;2.47;;;19.00;99.90;;;;;;4984958;28;20038;-63
2022/04/28 08:58:39;;;;;;;5.40;2.20;;;19.00;99.90;;;;;;4981744;28;21083;-70
2022/04/28 09:01:06;;;;;;;4.45;2.45;;;19.00;99.90;;;;;;4981611;28;20074;-71
2022/04/28 09:03:33;;;;;;;8.43;3.13;;;19.10;99.90;;;;;;4980881;28;20219;-69
2022/04/28 09:06:20;;;;;;;5.90;3.50;;;19.10;99.90;;;;;;4980161;28;20490;-72
2022/04/28 09:08:47;;;;;;;7.82;3.40;;;19.10;99.90;;;;;;4981789;28;20041;-65
2022/04/28 09:11:24;;;;;;;6.72;3.38;;;19.00;99.90;;;;;;4980541;28;20045;-71
2022/04/28 09:14:10;;;;;;;4.85;2.83;;;19.00;99.90;;;;;;4981282;28;20045;-72
2022/04/28 09:16:43;;;;;;;4.68;2.65;;;19.00;99.90;;;;;;4981707;28;20038;-70
2022/04/28 09:19:27;;;;;;;5.00;2.40;;;19.00;99.90;;;;;;4982321;28;20120;-64
2022/04/28 09:22:00;;;;;;;4.13;2.40;;;19.00;99.90;;;;;;4980851;28;20419;-64
2022/04/28 09:24:28;;;;;;;3.28;2.58;;;19.00;99.90;;;;;;4981288;28;20982;-72
2022/04/28 09:26:56;;;;;;;4.20;2.20;;;19.00;99.90;;;;;;5023103;28;20059;-63
2022/04/28 09:29:26;;;;;;;6.35;2.25;;;19.00;99.90;;;;;;5024463;28;20140;-63
2022/04/28 09:31:53;;;;;;;3.88;1.98;;;18.90;99.90;;;;;;5028455;28;20037;-63
2022/04/28 09:34:24;;;;;;;5.18;2.60;;;18.90;99.90;;;;;;5028198;28;20018;-64
2022/04/28 09:36:51;;;;;;;3.42;2.22;;;18.90;99.90;;;;;;5029320;28;20472;-64
2022/04/28 09:42:29;;;;;;;3.45;2.50;;;18.90;99.90;;;;;;5032815;28;20425;-64
2022/04/28 09:44:57;;;;;;;2.80;2.25;;;18.90;99.90;;;;;;5031357;28;20507;-68
2022/04/28 09:47:26;;;;;;;5.72;2.13;;;18.90;99.90;;;;;;5031449;28;20378;-64
2022/04/28 09:49:57;;;;;;;2.78;1.80;;;18.90;99.90;;;;;;5029866;28;20184;-69
2022/04/28 09:52:28;;;;;;;5.68;2.13;;;18.90;99.90;;;;;;5027908;28;20095;-67
2022/04/28 09:55:00;;;;;;;2.97;2.30;;;18.90;99.90;;;;;;5025663;28;20487;-64
2022/04/28 09:57:28;;;;;;;3.40;2.27;;;18.90;99.90;;;;;;5028232;28;20530;-64
2022/04/28 09:59:57;;;;;;;3.38;2.67;;;18.90;99.90;;;;;;5028209;28;20282;-65
2022/04/28 10:02:27;;;;;;;5.55;2.88;;;18.90;99.90;;;;;;5025992;28;20048;-65
2022/04/28 10:04:55;;;;;;;3.70;3.22;;;18.90;99.90;;;;;;5027555;28;20306;-68
2022/04/28 10:07:23;;;;;;;8.65;5.00;;;18.80;99.90;;;;;;5027995;28;20538;-64
2022/04/28 10:09:52;;;;;;;7.32;5.72;;;18.80;99.90;;;;;;5026881;28;20037;-70
2022/04/28 10:12:22;;;;;;;7.15;5.50;;;18.80;99.90;;;;;;5026864;28;20589;-69
2022/04/28 10:14:50;;;;;;;6.18;5.28;;;18.80;99.90;;;;;;5027328;28;20025;-71
2022/04/28 10:17:22;;;;;;;7.47;6.03;;;18.70;99.90;;;;;;5028616;28;20037;-73
2022/04/28 10:20:12;;;;;;;7.03;6.32;;;18.60;99.90;;;;;;5026660;28;20320;-68
2022/04/28 10:22:41;;;;;;;8.93;7.88;;;18.60;99.90;;;;;;5025700;28;20545;-68
2022/04/28 10:33:45;;;;;;;10.25;6.50;;;18.50;99.90;;;;;;4959616;28;20050;-70
2022/04/28 10:36:22;;;;;;;7.32;5.93;;;18.40;99.90;;;;;;4960010;28;20042;-63
2022/04/28 10:39:15;;;;;;;7.65;5.55;;;18.40;99.90;;;;;;5064319;22;20114;-63
2022/04/28 10:41:41;;;;;;;;;;;18.40;99.90;;;;;;5027070;28;20045;-65
2022/04/28 10:44:18;;;;;;;6.07;4.28;;;18.40;99.90;;;;;;5029754;28;19920;-69
2022/04/28 10:46:59;;;;;;;4.53;3.60;;;18.40;99.90;;;;;;5027360;28;20040;-63
2022/04/28 10:49:36;;;;;;;6.32;3.53;;;18.40;99.90;;;;;;5033163;28;20017;-64
2022/04/28 10:52:04;;;;;;;4.32;3.20;;;18.40;99.90;;;;;;5033045;28;20032;-66
2022/04/28 10:54:52;;;;;;;3.75;2.92;;;18.40;99.90;;;;;;5034092;28;20160;-66
2022/04/28 10:57:28;;;;;;;3.88;3.03;;;18.40;99.90;;;;;;5037519;28;20025;-65
2022/04/28 10:59:55;;;;;;;5.35;2.80;;;18.40;99.90;;;;;;5050821;28;20040;-69
2022/04/28 11:02:23;;;;;;;4.65;3.20;;;18.30;99.90;;;;;;5055254;28;20024;-64
2022/04/28 11:05:01;;;;;;;7.03;2.90;;;18.30;99.90;;;;;;5038275;28;20056;-64
2022/04/28 11:07:32;;;;;;;8.30;3.50;;;18.30;99.90;;;;;;5051070;28;20033;-66
2022/04/28 11:10:04;;;;;;;6.60;3.03;;;18.30;99.90;;;;;;5036248;28;20524;-68
2022/04/28 11:12:37;;;;;;;5.78;3.28;;;18.30;99.90;;;;;;5055356;28;20462;-64
2022/04/28 11:15:09;;;;;;;5.85;3.53;;;18.20;99.90;;;;;;5053182;28;20035;-68
2022/04/28 11:17:38;;;;;;;9.27;3.03;;;18.20;99.90;;;;;;5053943;28;20029;-67
2022/04/28 11:20:11;;;;;;;4.45;2.78;;;18.20;99.90;;;;;;5050010;28;20047;-64
2022/04/28 11:22:46;;;;;;;7.03;5.88;;;18.10;99.90;;;;;;5051829;28;20367;-68
2022/04/28 11:25:19;;;;;;;7.93;6.32;;;18.20;99.90;;;;;;5046967;28;20733;-64
2022/04/28 11:27:49;;;;;;;17.08;14.85;;;18.20;99.90;;;;;;5049586;28;20029;-65
2022/04/28 11:30:21;;;;;;;8.00;6.88;;;18.30;99.90;;;;;;5056613;28;20021;-63
2022/04/28 11:32:58;;;;;;;8.27;5.90;;;18.40;99.90;;;;;;5052420;28;20058;-65
2022/04/28 11:35:39;;;;;;;6.68;5.90;;;18.40;99.90;;;;;;5054496;28;20028;-65
2022/04/28 11:38:08;;;;;;;7.45;5.78;;;18.40;99.90;;;;;;5031335;28;20115;-67
2022/04/28 11:40:37;;;;;;;8.73;7.25;;;18.40;99.90;;;;;;5028773;28;20079;-66
2022/04/28 11:43:05;;;;;;;14.07;8.88;;;18.40;99.90;;;;;;5034259;28;20108;-67
2022/04/28 11:45:33;;;;;;;14.50;11.13;;;18.30;99.90;;;;;;5025268;28;20362;-65
2022/04/28 11:48:03;;;;;;;14.00;12.52;;;18.30;99.90;;;;;;5030732;28;20499;-67
2022/04/28 11:50:35;;;;;;;17.90;14.00;;;18.30;99.90;;;;;;5028535;28;20022;-68
2022/04/28 11:53:06;;;;;;;20.42;14.02;;;18.30;99.90;;;;;;5023403;28;20043;-67
2022/04/28 11:55:37;;;;;;;18.75;15.55;;;18.20;99.90;;;;;;5033740;28;20033;-66
2022/04/28 11:58:09;;;;;;;22.38;18.48;;;18.20;99.90;;;;;;5027917;28;20029;-67
2022/04/28 12:00:40;;;;;;;23.90;17.63;;;18.10;99.90;;;;;;5025595;28;20022;-65
2022/04/28 12:03:08;;;;;;;25.75;20.73;;;18.00;99.90;;;;;;5030041;28;20361;-66
2022/04/28 12:05:35;;;;;;;25.95;20.50;;;18.00;99.90;;;;;;5028238;28;20484;-66
2022/04/28 12:08:03;;;;;;;28.35;20.90;;;18.00;99.90;;;;;;5031579;28;20491;-64
2022/04/28 12:16:17;;;;;;;25.55;19.75;;;17.90;99.90;;;;;;5035342;28;20032;-68
2022/04/28 12:21:37;;;;;;;23.90;17.27;;;17.70;99.90;;;;;;5039364;28;20045;-63
2022/04/28 12:24:15;;;;;;;25.52;16.40;;;17.60;99.90;;;;;;5035466;28;20569;-69
2022/04/28 12:26:43;;;;;;;26.38;16.27;;;17.60;99.90;;;;;;5036414;28;20048;-67
2022/04/28 12:29:16;;;;;;;27.88;16.42;;;17.50;99.90;;;;;;5027318;28;20022;-69
2022/04/28 12:31:44;;;;;;;24.40;16.17;;;17.40;99.90;;;;;;5033319;28;20056;-64
2022/04/28 12:34:22;;;;;;;20.98;15.18;;;17.50;99.90;;;;;;5034597;28;20117;-63
2022/04/28 12:36:58;;;;;;;19.05;15.40;;;17.40;99.90;;;;;;5029795;28;20029;-68
2022/04/28 12:39:28;;;;;;;24.80;16.60;;;17.40;99.90;;;;;;5028714;28;20112;-64
2022/04/28 12:41:55;;;;;;;20.13;14.88;;;17.40;99.90;;;;;;5036311;28;20037;-64
2022/04/28 12:44:23;;;;;;;25.80;14.35;;;17.40;99.90;;;;;;5027522;28;20092;-63
2022/04/28 12:46:55;;;;;;;17.90;11.30;;;17.40;99.90;;;;;;5029801;28;20124;-63
2022/04/28 12:49:23;;;;;;;16.43;13.27;;;17.40;99.90;;;;;;5028613;28;20120;-68
2022/04/28 12:51:54;;;;;;;16.55;9.40;;;17.40;99.90;;;;;;5039066;28;20389;-65
2022/04/28 12:54:25;;;;;;;12.50;8.63;;;17.40;99.90;;;;;;5029737;28;20361;-64
2022/04/28 12:57:00;;;;;;;13.10;8.00;;;17.40;99.90;;;;;;5028827;28;20033;-64
2022/04/28 12:59:36;;;;;;;12.80;8.18;;;17.30;99.90;;;;;;5031004;28;20026;-66
2022/04/28 13:02:04;;;;;;;11.30;7.78;;;17.30;99.90;;;;;;5034836;28;20021;-66
2022/04/28 13:04:35;;;;;;;10.85;7.05;;;17.30;99.90;;;;;;5031612;28;20075;-66
2022/04/28 13:07:04;;;;;;;11.43;6.35;;;17.30;99.90;;;;;;5032873;28;20058;-68
2022/04/28 13:09:32;;;;;;;12.02;6.28;;;17.30;99.90;;;;;;5039365;28;20302;-64
2022/04/28 13:11:59;;;;;;;12.65;6.43;;;17.30;99.90;;;;;;5037625;28;20021;-67
2022/04/28 13:14:26;;;;;;;12.63;8.13;;;17.30;99.90;;;;;;5033914;28;20043;-63
2022/04/28 13:16:53;;;;;;;8.65;6.10;;;17.30;99.90;;;;;;5038826;28;20080;-66
2022/04/28 13:19:20;;;;;;;9.68;6.78;;;17.30;99.90;;;;;;5038650;28;20021;-66
2022/04/28 13:21:47;;;;;;;10.23;6.70;;;17.30;99.90;;;;;;5040571;28;20082;-65
2022/04/28 13:24:15;;;;;;;9.77;6.00;;;17.30;99.90;;;;;;5039107;28;20059;-68
2022/04/28 13:26:42;;;;;;;9.32;5.78;;;17.30;99.90;;;;;;5040249;28;20029;-63
2022/04/28 13:29:10;;;;;;;16.35;6.60;;;17.20;99.90;;;;;;5036668;28;20068;-64
2022/04/28 13:31:39;;;;;;;8.25;5.15;;;17.10;99.90;;;;;;5040531;28;20021;-64
2022/04/28 13:34:07;;;;;;;8.23;7.38;;;17.00;99.90;;;;;;5039384;28;20028;-67